Time;durP1;ratioP1;P1;durP2;ratioP2;P2;SDS_P1;SDS_P2;PMS_P1;PMS_P2;Temp;Humidity;BMP_temperature;BMP_pressure;BME280_temperature;BME280_humidity;BME280_pressure;Samples;Min_cycle;Max_cycle;Signal;HPM_P1;HPM_P2
2024/01/21 00:01:51;;;;;;;12.53;8.37;;;-7.10;99.90;;;;;;5071140;28;20381;-66
2024/01/21 00:04:18;;;;;;;12.57;7.70;;;-7.10;99.90;;;;;;5059253;28;20510;-65
2024/01/21 00:06:45;;;;;;;12.37;7.80;;;-7.10;99.90;;;;;;5062850;28;20501;-65
2024/01/21 00:09:17;;;;;;;12.13;7.87;;;-7.10;99.90;;;;;;5051769;28;20140;-66
2024/01/21 00:11:49;;;;;;;12.40;9.40;;;-7.10;99.90;;;;;;5054802;28;20063;-65
2024/01/21 00:14:15;;;;;;;11.77;7.57;;;-7.20;99.90;;;;;;5070020;28;20048;-65
2024/01/21 00:16:47;;;;;;;12.67;8.07;;;-7.20;99.90;;;;;;5046144;28;20044;-65
2024/01/21 00:19:19;;;;;;;13.27;9.63;;;-7.30;99.90;;;;;;5056878;28;20048;-66
2024/01/21 00:21:51;;;;;;;15.13;9.30;;;-7.30;99.90;;;;;;5068970;28;20101;-65
2024/01/21 00:24:22;;;;;;;15.03;9.27;;;-7.30;99.90;;;;;;5058284;28;20053;-65
2024/01/21 00:26:54;;;;;;;14.27;9.37;;;-7.30;99.90;;;;;;5068595;28;20067;-65
2024/01/21 00:29:26;;;;;;;12.30;8.23;;;-7.30;99.90;;;;;;5048781;28;20045;-66
2024/01/21 00:31:59;;;;;;;10.93;7.50;;;-7.30;99.90;;;;;;5062664;28;20081;-65
2024/01/21 00:34:31;;;;;;;15.03;9.47;;;-7.30;99.90;;;;;;5048220;28;20049;-66
2024/01/21 00:36:57;;;;;;;12.13;7.63;;;-7.30;99.90;;;;;;5061466;28;20036;-66
2024/01/21 00:39:30;;;;;;;11.70;7.93;;;-7.30;99.90;;;;;;5074311;28;20044;-66
2024/01/21 00:42:02;;;;;;;12.93;8.80;;;-7.30;99.90;;;;;;5072285;28;20040;-66
2024/01/21 00:44:35;;;;;;;15.47;8.27;;;-7.30;99.90;;;;;;5068886;28;20047;-65
2024/01/21 00:47:07;;;;;;;14.15;7.57;;;-7.30;99.90;;;;;;5058425;28;20048;-65
2024/01/21 00:49:39;;;;;;;12.07;7.73;;;-7.40;99.90;;;;;;5049888;28;20053;-65
2024/01/21 00:52:08;;;;;;;13.03;8.40;;;-7.30;99.90;;;;;;5066417;28;20429;-65
2024/01/21 00:54:40;;;;;;;16.20;9.80;;;-7.30;99.90;;;;;;5074950;28;20660;-65
2024/01/21 00:57:12;;;;;;;14.57;10.40;;;-7.30;99.90;;;;;;5043471;28;20045;-65
2024/01/21 00:59:39;;;;;;;19.40;10.03;;;-7.40;99.90;;;;;;5064409;28;20548;-65
2024/01/21 01:02:11;;;;;;;13.37;9.50;;;-7.40;99.90;;;;;;5072063;28;20728;-65
2024/01/21 01:04:43;;;;;;;14.37;9.33;;;-7.50;99.90;;;;;;5051416;28;20068;-65
2024/01/21 01:07:09;;;;;;;13.07;8.20;;;-7.50;99.90;;;;;;5067058;28;20045;-65
2024/01/21 01:09:43;;;;;;;12.07;7.27;;;-7.50;99.90;;;;;;5065990;28;20412;-65
2024/01/21 01:12:14;;;;;;;14.63;8.73;;;-7.50;99.90;;;;;;5081700;28;20045;-65
2024/01/21 01:14:41;;;;;;;13.20;7.87;;;-7.50;99.90;;;;;;5063574;28;20498;-65
2024/01/21 01:17:13;;;;;;;15.63;9.03;;;-7.60;99.90;;;;;;5057848;28;20043;-65
2024/01/21 01:19:41;;;;;;;12.37;8.00;;;-7.60;99.90;;;;;;5067575;28;20124;-65
2024/01/21 01:22:13;;;;;;;13.63;8.80;;;-7.60;99.90;;;;;;5040308;28;20037;-65
2024/01/21 01:24:44;;;;;;;12.30;8.87;;;-7.60;99.90;;;;;;5057842;28;20420;-65
2024/01/21 01:27:16;;;;;;;15.27;9.37;;;-7.70;99.90;;;;;;5034985;28;20044;-66
2024/01/21 01:29:43;;;;;;;13.37;8.87;;;-7.70;99.90;;;;;;5067922;28;20053;-66
2024/01/21 01:32:10;;;;;;;14.57;8.43;;;-7.70;99.90;;;;;;5054896;28;20044;-65
2024/01/21 01:34:38;;;;;;;14.90;9.27;;;-7.70;99.90;;;;;;5066662;28;20036;-65
2024/01/21 01:37:05;;;;;;;15.77;9.90;;;-7.70;99.90;;;;;;5067428;28;20504;-65
2024/01/21 01:39:37;;;;;;;14.17;9.03;;;-7.70;99.90;;;;;;5061748;28;20123;-66
2024/01/21 01:42:09;;;;;;;18.47;9.13;;;-7.70;99.90;;;;;;5068578;28;20042;-65
2024/01/21 01:44:40;;;;;;;19.80;11.20;;;-7.60;99.90;;;;;;5061911;28;20059;-65
2024/01/21 01:47:12;;;;;;;19.90;10.57;;;-7.50;99.90;;;;;;5061472;28;20816;-65
2024/01/21 01:49:45;;;;;;;19.60;10.00;;;-7.60;99.90;;;;;;5051266;28;20053;-65
2024/01/21 01:52:17;;;;;;;15.57;10.30;;;-7.70;99.90;;;;;;5041259;28;20525;-65
2024/01/21 01:54:46;;;;;;;16.10;10.90;;;-7.80;99.90;;;;;;5068926;28;20127;-65
2024/01/21 01:57:19;;;;;;;16.80;10.70;;;-7.70;99.90;;;;;;5053104;28;20041;-65
2024/01/21 01:59:50;;;;;;;20.25;11.80;;;-7.80;99.90;;;;;;5058375;28;20433;-65
2024/01/21 02:02:18;;;;;;;21.87;11.60;;;-7.80;99.90;;;;;;5062573;28;20040;-65
2024/01/21 02:04:50;;;;;;;15.40;10.13;;;-7.80;99.90;;;;;;5070384;28;20040;-65
2024/01/21 02:07:22;;;;;;;17.07;9.70;;;-7.80;99.90;;;;;;5051290;28;20047;-66
2024/01/21 02:09:49;;;;;;;20.97;11.40;;;-7.80;99.90;;;;;;5053091;28;20044;-66
2024/01/21 02:12:18;;;;;;;17.20;11.17;;;-7.80;99.90;;;;;;5055102;28;20041;-66
2024/01/21 02:14:50;;;;;;;18.07;10.77;;;-7.90;99.90;;;;;;5052504;28;20028;-65
2024/01/21 02:17:22;;;;;;;18.80;10.43;;;-7.90;99.90;;;;;;5055269;28;20039;-65
2024/01/21 02:19:54;;;;;;;21.40;11.60;;;-7.90;99.90;;;;;;5052698;28;20041;-65
2024/01/21 02:22:27;;;;;;;19.97;11.33;;;-7.90;99.90;;;;;;5054233;28;20421;-65
2024/01/21 02:24:59;;;;;;;13.57;8.50;;;-8.00;99.90;;;;;;5052271;28;20428;-65
2024/01/21 02:27:31;;;;;;;21.40;11.30;;;-8.00;99.90;;;;;;5066434;28;20032;-65
2024/01/21 02:30:04;;;;;;;23.20;11.13;;;-8.00;99.90;;;;;;5051610;28;20049;-65
2024/01/21 02:32:36;;;;;;;18.23;11.23;;;-8.00;99.90;;;;;;5046681;28;20041;-65
2024/01/21 02:35:08;;;;;;;21.33;12.13;;;-8.00;99.90;;;;;;5057701;28;20041;-66
2024/01/21 02:37:34;;;;;;;24.37;13.67;;;-8.00;99.90;;;;;;5067345;28;20045;-65
2024/01/21 02:40:07;;;;;;;22.20;12.90;;;-8.10;99.90;;;;;;5049323;28;20049;-65
2024/01/21 02:42:39;;;;;;;19.00;12.10;;;-8.00;99.90;;;;;;5049020;28;20045;-65
2024/01/21 02:45:06;;;;;;;21.10;12.17;;;-8.00;99.90;;;;;;5038926;28;20278;-65
2024/01/21 02:47:38;;;;;;;21.07;12.23;;;-8.00;99.90;;;;;;5054394;28;20420;-65
2024/01/21 02:50:10;;;;;;;23.03;11.73;;;-8.00;99.90;;;;;;5049466;28;20579;-65
2024/01/21 02:52:42;;;;;;;14.80;9.93;;;-8.00;99.90;;;;;;5063367;28;20032;-65
2024/01/21 02:55:14;;;;;;;20.63;11.30;;;-8.00;99.90;;;;;;5047531;28;20049;-65
2024/01/21 02:57:46;;;;;;;20.03;11.60;;;-8.00;99.90;;;;;;5066391;28;20032;-65
2024/01/21 03:00:13;;;;;;;21.27;10.80;;;-8.00;99.90;;;;;;5070718;28;20066;-65
2024/01/21 03:02:46;;;;;;;19.63;10.67;;;-8.00;99.90;;;;;;5060382;28;20033;-65
2024/01/21 03:05:18;;;;;;;16.60;10.40;;;-8.00;99.90;;;;;;5059089;28;20062;-65
2024/01/21 03:07:45;;;;;;;21.20;11.27;;;-8.10;99.90;;;;;;5058118;28;20040;-65
2024/01/21 03:10:17;;;;;;;15.97;10.77;;;-8.10;99.90;;;;;;5051508;28;20527;-65
2024/01/21 03:12:48;;;;;;;17.33;10.60;;;-8.20;99.90;;;;;;5056792;28;20048;-65
2024/01/21 03:15:21;;;;;;;18.53;10.03;;;-8.20;99.90;;;;;;5057095;28;20040;-65
2024/01/21 03:17:52;;;;;;;16.47;9.57;;;-8.30;99.90;;;;;;5047301;28;20055;-65
2024/01/21 03:20:25;;;;;;;20.27;11.03;;;-8.20;99.90;;;;;;5066033;28;20040;-65
2024/01/21 03:22:57;;;;;;;19.17;11.05;;;-8.10;99.90;;;;;;5069795;28;20048;-65
2024/01/21 03:25:24;;;;;;;21.83;10.83;;;-8.10;99.90;;;;;;5064548;28;20075;-65
2024/01/21 03:27:56;;;;;;;21.90;12.20;;;-8.00;99.90;;;;;;5055566;28;20052;-65
2024/01/21 03:30:28;;;;;;;22.50;12.27;;;-8.00;99.90;;;;;;5071863;28;20571;-65
2024/01/21 03:32:54;;;;;;;23.90;12.30;;;-7.90;99.90;;;;;;5030836;28;20532;-65
2024/01/21 03:35:26;;;;;;;19.63;12.00;;;-8.00;99.90;;;;;;5040538;28;20040;-65
2024/01/21 03:37:53;;;;;;;24.70;11.67;;;-8.00;99.90;;;;;;5071999;28;20098;-65
2024/01/21 03:40:25;;;;;;;21.33;12.27;;;-8.00;99.90;;;;;;5066944;28;20028;-65
2024/01/21 03:42:52;;;;;;;20.87;11.43;;;-8.00;99.90;;;;;;5051206;28;20033;-65
2024/01/21 03:45:18;;;;;;;18.73;11.03;;;-8.10;99.90;;;;;;5042368;28;20509;-65
2024/01/21 03:47:50;;;;;;;19.13;10.70;;;-8.10;99.90;;;;;;5069035;28;20072;-65
2024/01/21 03:50:22;;;;;;;17.43;10.77;;;-8.00;99.90;;;;;;5069360;28;20501;-66
2024/01/21 03:52:54;;;;;;;17.60;11.07;;;-8.10;99.90;;;;;;5070156;28;20130;-65
2024/01/21 03:55:21;;;;;;;17.63;11.10;;;-8.10;99.90;;;;;;5065242;28;20057;-65
2024/01/21 03:57:53;;;;;;;18.67;11.07;;;-8.10;99.90;;;;;;5059009;28;20045;-65
2024/01/21 04:00:25;;;;;;;19.27;11.60;;;-8.10;99.90;;;;;;5074479;28;20487;-65
2024/01/21 04:02:57;;;;;;;18.90;10.87;;;-8.10;99.90;;;;;;5067372;28;20064;-65
2024/01/21 04:05:24;;;;;;;16.20;10.03;;;-8.10;99.90;;;;;;5055936;28;20408;-65
2024/01/21 04:07:55;;;;;;;14.90;10.43;;;-8.10;99.90;;;;;;5070690;28;20067;-65
2024/01/21 04:10:28;;;;;;;16.07;10.00;;;-8.20;99.90;;;;;;5065454;28;20049;-65
2024/01/21 04:12:55;;;;;;;16.47;10.00;;;-8.20;99.90;;;;;;5054304;28;20053;-65
2024/01/21 04:15:27;;;;;;;15.80;10.60;;;-8.20;99.90;;;;;;5067585;28;20401;-65
2024/01/21 04:17:59;;;;;;;15.47;9.73;;;-8.30;99.90;;;;;;5071631;28;20563;-65
2024/01/21 04:20:26;;;;;;;18.93;10.43;;;-8.30;99.90;;;;;;5046806;28;20043;-66
2024/01/21 04:22:57;;;;;;;21.00;10.20;;;-8.30;99.90;;;;;;5062819;28;20456;-66
2024/01/21 04:25:29;;;;;;;18.10;10.60;;;-8.30;99.90;;;;;;5056672;28;20045;-65
2024/01/21 04:28:01;;;;;;;16.57;10.13;;;-8.30;99.90;;;;;;5060844;28;20044;-65
2024/01/21 04:30:35;;;;;;;19.60;10.30;;;-8.30;99.90;;;;;;5058646;28;20069;-65
2024/01/21 04:33:02;;;;;;;17.77;10.67;;;-8.30;99.90;;;;;;5064586;28;20087;-65
2024/01/21 04:35:35;;;;;;;16.33;9.87;;;-8.20;99.90;;;;;;5067845;28;20033;-65
2024/01/21 04:38:06;;;;;;;14.77;9.02;;;-8.30;99.90;;;;;;5058100;28;20048;-65
2024/01/21 04:40:38;;;;;;;17.00;10.80;;;-8.30;99.90;;;;;;5070237;28;20040;-65
2024/01/21 04:43:10;;;;;;;22.63;11.10;;;-8.20;99.90;;;;;;5056561;28;20050;-65
2024/01/21 04:45:37;;;;;;;16.57;10.40;;;-8.20;99.90;;;;;;5063335;28;20033;-65
2024/01/21 04:48:09;;;;;;;18.13;10.77;;;-8.20;99.90;;;;;;5063842;28;20037;-65
2024/01/21 04:50:41;;;;;;;18.10;10.57;;;-8.20;99.90;;;;;;5054996;28;20048;-65
2024/01/21 04:53:13;;;;;;;23.07;12.37;;;-8.20;99.90;;;;;;5050787;28;20040;-66
2024/01/21 04:55:46;;;;;;;18.33;10.13;;;-8.30;99.90;;;;;;5064719;28;20223;-65
2024/01/21 04:58:18;;;;;;;18.70;10.52;;;-8.30;99.90;;;;;;5064813;28;20120;-65
2024/01/21 05:00:44;;;;;;;20.17;10.50;;;-8.30;99.90;;;;;;5051923;28;20063;-65
2024/01/21 05:03:17;;;;;;;20.07;9.93;;;-8.30;99.90;;;;;;5062978;28;20032;-65
2024/01/21 05:05:49;;;;;;;15.33;9.63;;;-8.40;99.90;;;;;;5055057;28;20143;-65
2024/01/21 05:08:21;;;;;;;15.70;10.00;;;-8.40;99.90;;;;;;5045517;28;20417;-65
2024/01/21 05:10:52;;;;;;;19.63;9.83;;;-8.40;99.90;;;;;;5056917;28;20059;-65
2024/01/21 05:13:24;;;;;;;16.10;9.60;;;-8.40;99.90;;;;;;5064893;28;20187;-65
2024/01/21 05:15:56;;;;;;;18.43;10.30;;;-8.40;99.90;;;;;;5041888;28;20045;-65
2024/01/21 05:18:23;;;;;;;15.70;9.53;;;-8.40;99.90;;;;;;5061855;28;20032;-65
2024/01/21 05:20:55;;;;;;;19.87;10.63;;;-8.40;99.90;;;;;;5060914;28;20401;-65
2024/01/21 05:23:27;;;;;;;18.63;10.50;;;-8.40;99.90;;;;;;5064898;28;20041;-66
2024/01/21 05:25:59;;;;;;;16.33;9.53;;;-8.40;99.90;;;;;;5068825;28;20698;-65
2024/01/21 05:28:31;;;;;;;19.00;10.70;;;-8.40;99.90;;;;;;5047461;28;20683;-65
2024/01/21 05:30:58;;;;;;;17.50;10.40;;;-8.40;99.90;;;;;;5064853;28;20037;-65
2024/01/21 05:33:29;;;;;;;19.47;10.53;;;-8.40;99.90;;;;;;5055908;28;20071;-65
2024/01/21 05:36:01;;;;;;;14.90;9.90;;;-8.40;99.90;;;;;;5058177;28;20048;-66
2024/01/21 05:38:33;;;;;;;15.50;10.40;;;-8.40;99.90;;;;;;5045573;28;20044;-65
2024/01/21 05:41:05;;;;;;;20.73;11.33;;;-8.40;99.90;;;;;;5052328;28;20118;-65
2024/01/21 05:43:37;;;;;;;16.73;10.43;;;-8.40;99.90;;;;;;5054602;28;20061;-65
2024/01/21 05:46:04;;;;;;;17.37;10.13;;;-8.40;99.90;;;;;;5057737;28;20131;-65
2024/01/21 05:48:36;;;;;;;21.97;12.00;;;-8.40;99.90;;;;;;5070109;28;20123;-65
2024/01/21 05:51:08;;;;;;;20.60;11.33;;;-8.40;99.90;;;;;;5065142;28;20087;-66
2024/01/21 05:53:34;;;;;;;19.30;11.87;;;-8.40;99.90;;;;;;5048461;28;20044;-65
2024/01/21 05:56:06;;;;;;;20.40;11.80;;;-8.40;99.90;;;;;;5057800;28;20044;-65
2024/01/21 05:58:38;;;;;;;19.17;12.03;;;-8.40;99.90;;;;;;5065592;28;20036;-65
2024/01/21 06:01:10;;;;;;;19.13;12.20;;;-8.40;99.90;;;;;;5055784;28;20041;-65
2024/01/21 06:03:37;;;;;;;18.63;11.77;;;-8.40;99.90;;;;;;5053319;28;20039;-65
2024/01/21 06:06:09;;;;;;;20.13;11.93;;;-8.40;99.90;;;;;;5051634;28;20040;-65
2024/01/21 06:08:41;;;;;;;19.33;11.33;;;-8.40;99.90;;;;;;5058020;28;20118;-65
2024/01/21 06:11:13;;;;;;;18.63;10.83;;;-8.50;99.90;;;;;;5048580;28;20052;-65
2024/01/21 06:13:45;;;;;;;23.80;11.33;;;-8.50;99.90;;;;;;5066851;28;20037;-65
2024/01/21 06:16:17;;;;;;;20.33;11.30;;;-8.50;99.90;;;;;;5055661;28;20054;-65
2024/01/21 06:18:49;;;;;;;19.67;11.40;;;-8.50;99.90;;;;;;5049758;28;20548;-65
2024/01/21 06:21:21;;;;;;;20.47;11.70;;;-8.60;99.90;;;;;;5066117;28;20045;-65
2024/01/21 06:23:53;;;;;;;19.00;10.93;;;-8.60;99.90;;;;;;5066705;28;20151;-65
2024/01/21 06:26:24;;;;;;;22.23;12.60;;;-8.60;99.90;;;;;;5064190;28;20067;-66
2024/01/21 06:28:56;;;;;;;22.40;11.20;;;-8.60;99.90;;;;;;5054676;28;20041;-65
2024/01/21 06:31:23;;;;;;;22.93;14.37;;;-8.60;99.90;;;;;;5061452;28;20086;-65
2024/01/21 06:33:55;;;;;;;25.13;12.80;;;-8.50;99.90;;;;;;5054989;28;20515;-65
2024/01/21 06:36:27;;;;;;;20.70;11.20;;;-8.60;99.90;;;;;;5044679;28;20102;-65
2024/01/21 06:39:00;;;;;;;20.83;11.65;;;-8.50;99.90;;;;;;5040879;28;20132;-65
2024/01/21 06:41:32;;;;;;;17.50;11.13;;;-8.50;99.90;;;;;;5068301;28;20523;-65
2024/01/21 06:43:59;;;;;;;21.97;11.70;;;-8.50;99.90;;;;;;5067301;28;20036;-65
2024/01/21 06:46:31;;;;;;;14.70;9.33;;;-8.50;99.90;;;;;;5045585;28;20125;-65
2024/01/21 06:48:57;;;;;;;15.07;9.57;;;-8.40;99.90;;;;;;5064203;28;20040;-65
2024/01/21 06:52:10;;;;;;;18.10;10.00;;;-8.50;99.90;;;;;;5051965;28;20041;-65
2024/01/21 06:54:13;;;;;;;21.93;12.87;;;-8.50;99.90;;;;;;5049834;28;20059;-65
2024/01/21 06:56:45;;;;;;;20.60;12.37;;;-8.50;99.90;;;;;;5049004;28;20186;-65
2024/01/21 06:59:12;;;;;;;20.17;12.13;;;-8.50;99.90;;;;;;5057099;28;20120;-65
2024/01/21 07:01:39;;;;;;;19.17;11.27;;;-8.50;99.90;;;;;;5060899;28;20120;-65
2024/01/21 07:04:12;;;;;;;20.30;12.17;;;-8.50;99.90;;;;;;5055951;28;20045;-65
2024/01/21 07:06:45;;;;;;;20.75;12.07;;;-8.50;99.90;;;;;;5071643;28;20095;-65
2024/01/21 07:09:16;;;;;;;22.57;12.13;;;-8.50;99.90;;;;;;5063864;28;20137;-65
2024/01/21 07:11:48;;;;;;;26.57;14.07;;;-8.50;99.90;;;;;;5052381;28;20043;-65
2024/01/21 07:14:20;;;;;;;30.10;16.10;;;-8.50;99.90;;;;;;5050688;28;20068;-65
2024/01/21 07:16:52;;;;;;;53.33;26.87;;;-8.50;99.90;;;;;;5052480;28;20033;-65
2024/01/21 07:19:24;;;;;;;44.27;23.47;;;-8.40;99.90;;;;;;5061987;28;20421;-66
2024/01/21 07:21:51;;;;;;;51.80;26.50;;;-8.40;99.90;;;;;;5064149;28;20090;-66
2024/01/21 07:24:18;;;;;;;48.33;22.80;;;-8.40;99.90;;;;;;5052785;28;20123;-65
2024/01/21 07:26:49;;;;;;;27.70;16.10;;;-8.40;99.90;;;;;;5058484;28;20048;-65
2024/01/21 07:29:16;;;;;;;23.87;13.63;;;-8.40;99.90;;;;;;5067367;28;20048;-65
2024/01/21 07:31:48;;;;;;;26.60;14.03;;;-8.50;99.90;;;;;;5066312;28;20048;-65
2024/01/21 07:34:20;;;;;;;28.57;12.87;;;-8.50;99.90;;;;;;5060410;28;20051;-65
2024/01/21 07:36:52;;;;;;;25.70;13.17;;;-8.50;99.90;;;;;;5067798;28;20033;-66
2024/01/21 07:39:24;;;;;;;25.40;13.50;;;-8.50;99.90;;;;;;5043738;28;20041;-65
2024/01/21 07:41:56;;;;;;;37.30;19.53;;;-8.40;99.90;;;;;;5053873;28;20523;-66
2024/01/21 07:44:28;;;;;;;37.43;18.47;;;-8.40;99.90;;;;;;5049674;28;20043;-65
2024/01/21 07:47:00;;;;;;;36.33;16.33;;;-8.40;99.90;;;;;;5063749;28;20044;-65
2024/01/21 07:49:31;;;;;;;37.40;18.63;;;-8.40;99.90;;;;;;5042795;28;20138;-65
2024/01/21 07:52:04;;;;;;;31.50;17.63;;;-8.30;99.90;;;;;;5045345;28;20056;-65
2024/01/21 07:54:36;;;;;;;32.53;16.70;;;-8.30;99.90;;;;;;5058106;28;20051;-65
2024/01/21 07:57:03;;;;;;;34.73;17.43;;;-8.20;99.90;;;;;;5042204;28;20115;-65
2024/01/21 07:59:34;;;;;;;32.73;16.23;;;-8.20;99.90;;;;;;5060864;28;20090;-66
2024/01/21 08:02:01;;;;;;;27.30;15.07;;;-8.10;99.90;;;;;;5060504;28;20044;-65
2024/01/21 08:04:33;;;;;;;32.90;17.97;;;-8.10;99.90;;;;;;5046534;28;20527;-65
2024/01/21 08:07:05;;;;;;;34.10;17.97;;;-8.00;99.90;;;;;;5064060;28;20045;-65
2024/01/21 08:09:37;;;;;;;40.00;22.33;;;-7.90;99.90;;;;;;5050507;28;20059;-65
2024/01/21 08:12:08;;;;;;;40.83;23.30;;;-7.80;99.90;;;;;;5057131;28;20099;-65
2024/01/21 08:14:35;;;;;;;35.30;21.30;;;-7.80;99.90;;;;;;5048768;28;20055;-66
2024/01/21 08:17:08;;;;;;;30.77;18.23;;;-7.70;99.90;;;;;;5068425;28;20121;-66
2024/01/21 08:19:38;;;;;;;32.10;18.73;;;-7.60;99.90;;;;;;5065625;28;20036;-68
2024/01/21 08:22:10;;;;;;;31.73;18.07;;;-7.50;99.90;;;;;;5074236;28;20048;-65
2024/01/21 08:24:37;;;;;;;38.63;18.27;;;-7.40;99.90;;;;;;5069822;28;20033;-65
2024/01/21 08:27:09;;;;;;;30.77;16.33;;;-7.30;99.90;;;;;;5073052;28;20423;-65
2024/01/21 08:29:39;;;;;;;29.87;16.53;;;-7.30;99.90;;;;;;5055630;28;20097;-65
2024/01/21 08:32:11;;;;;;;33.73;18.10;;;-7.20;99.90;;;;;;5053410;28;20048;-65
2024/01/21 08:34:44;;;;;;;41.27;23.37;;;-7.10;99.90;;;;;;5053581;28;20056;-69
2024/01/21 08:37:16;;;;;;;24.48;15.30;;;-7.00;99.90;;;;;;5053669;28;20040;-66
2024/01/21 08:39:48;;;;;;;34.77;19.87;;;-7.00;99.90;;;;;;5063614;28;20052;-66
2024/01/21 08:42:19;;;;;;;35.40;18.23;;;-6.90;99.90;;;;;;5066975;28;20052;-73
2024/01/21 08:44:51;;;;;;;32.50;17.93;;;-6.80;99.90;;;;;;5068155;28;20048;-66
2024/01/21 08:47:23;;;;;;;31.13;17.70;;;-6.70;99.90;;;;;;5056216;28;20048;-65
2024/01/21 08:49:55;;;;;;;26.87;15.77;;;-6.60;99.90;;;;;;5071963;28;20036;-66
2024/01/21 08:52:28;;;;;;;25.07;14.50;;;-6.60;99.90;;;;;;5057468;28;20147;-65
2024/01/21 08:54:59;;;;;;;19.90;13.23;;;-6.60;99.90;;;;;;5059051;28;20045;-65
2024/01/21 08:57:26;;;;;;;22.93;13.50;;;-6.50;99.90;;;;;;5063875;28;20048;-65
2024/01/21 08:59:58;;;;;;;22.10;14.47;;;-6.40;99.90;;;;;;5054007;28;20041;-65
2024/01/21 09:02:25;;;;;;;24.27;14.03;;;-6.40;99.90;;;;;;5038293;28;20572;-66
2024/01/21 09:04:57;;;;;;;23.50;14.07;;;-6.40;99.90;;;;;;5066816;28;20090;-65
2024/01/21 09:07:29;;;;;;;25.67;14.87;;;-6.30;99.90;;;;;;5063500;28;20124;-65
2024/01/21 09:10:04;;;;;;;26.57;15.37;;;-6.20;99.90;;;;;;5068302;28;20056;-65
2024/01/21 09:12:31;;;;;;;28.07;15.93;;;-6.20;99.90;;;;;;5074893;28;20036;-65
2024/01/21 09:15:05;;;;;;;32.63;17.97;;;-6.10;99.90;;;;;;5063686;28;20417;-66
2024/01/21 09:17:37;;;;;;;31.63;17.63;;;-6.00;99.90;;;;;;5054184;28;20051;-66
2024/01/21 09:20:09;;;;;;;38.53;21.63;;;-5.90;99.90;;;;;;5065295;28;20068;-66
2024/01/21 09:22:41;;;;;;;31.87;18.10;;;-5.80;99.90;;;;;;5062866;28;20401;-66
2024/01/21 09:25:13;;;;;;;35.73;22.53;;;-5.70;99.90;;;;;;5090378;28;20023;-67
2024/01/21 09:27:45;;;;;;;40.63;21.10;;;-5.60;99.90;;;;;;5086706;28;20036;-66
2024/01/21 09:30:17;;;;;;;29.77;17.50;;;-5.50;99.90;;;;;;5057287;28;20513;-65
2024/01/21 09:32:49;;;;;;;23.23;16.08;;;-5.40;99.90;;;;;;5064504;28;20047;-65
2024/01/21 09:35:21;;;;;;;26.70;16.13;;;-5.30;99.90;;;;;;5055576;28;20056;-65
2024/01/21 09:37:53;;;;;;;25.93;15.37;;;-5.20;99.90;;;;;;5063935;28;20040;-65
2024/01/21 09:40:20;;;;;;;24.45;15.60;;;-5.10;99.90;;;;;;5049969;28;20037;-66
2024/01/21 09:42:52;;;;;;;25.52;15.98;;;-5.10;99.90;;;;;;5070789;28;20137;-65
2024/01/21 09:45:25;;;;;;;21.85;14.15;;;-5.00;99.90;;;;;;5045438;28;20128;-65
2024/01/21 09:47:59;;;;;;;22.80;14.88;;;-4.90;99.90;;;;;;5055914;28;20043;-65
2024/01/21 09:50:32;;;;;;;24.70;14.88;;;-4.80;99.90;;;;;;5051482;28;20079;-65
2024/01/21 09:52:59;;;;;;;23.88;15.23;;;-4.70;99.90;;;;;;5067241;28;20037;-66
2024/01/21 09:55:31;;;;;;;26.42;15.93;;;-4.70;99.90;;;;;;5050941;28;20037;-67
2024/01/21 09:58:09;;;;;;;25.38;14.93;;;-4.60;99.90;;;;;;5065447;28;20420;-66
2024/01/21 10:00:36;;;;;;;23.65;15.02;;;-4.50;99.90;;;;;;5066269;28;20132;-65
2024/01/21 10:03:09;;;;;;;;;;;-4.40;99.90;;;;;;5072357;28;20559;-66
2024/01/21 10:05:41;;;;;;;20.42;12.98;;;-4.20;99.90;;;;;;5071916;28;19920;-65
2024/01/21 10:08:09;;;;;;;25.33;13.57;;;-4.10;99.90;;;;;;5062749;28;20557;-66
2024/01/21 10:10:43;;;;;;;21.05;13.82;;;-4.00;99.90;;;;;;5065002;28;20516;-65
2024/01/21 10:13:16;;;;;;;27.17;15.75;;;-3.80;99.90;;;;;;5046578;28;20119;-65
2024/01/21 10:15:49;;;;;;;22.33;14.43;;;-3.70;99.90;;;;;;5069192;28;20069;-65
2024/01/21 10:18:21;;;;;;;18.80;13.02;;;-3.60;99.90;;;;;;5068450;28;20520;-65
2024/01/21 10:20:53;;;;;;;22.77;12.98;;;-3.50;99.90;;;;;;5051815;28;20056;-66
2024/01/21 10:23:25;;;;;;;23.23;14.60;;;-3.40;99.90;;;;;;5056024;28;20039;-65
2024/01/21 10:25:57;;;;;;;21.00;13.45;;;-3.30;99.90;;;;;;5052856;28;20039;-65
2024/01/21 10:28:23;;;;;;;18.80;11.57;;;-3.20;99.90;;;;;;5051009;28;20051;-65
2024/01/21 10:30:55;;;;;;;20.63;12.68;;;-3.00;99.90;;;;;;5060614;28;20497;-65
2024/01/21 10:33:23;;;;;;;19.48;12.02;;;-2.90;99.90;;;;;;5060794;28;20515;-65
2024/01/21 10:35:56;;;;;;;9.07;6.18;;;-2.70;99.90;;;;;;5066071;28;20071;-66
2024/01/21 10:38:32;;;;;;;6.43;3.80;;;-2.20;99.90;;;;;;5035114;28;20071;-65
2024/01/21 10:41:05;;;;;;;7.90;5.25;;;-1.70;99.90;;;;;;5061141;28;20495;-65
2024/01/21 10:43:40;;;;;;;3.47;2.30;;;-1.20;99.90;;;;;;5068349;28;20525;-65
2024/01/21 10:46:12;;;;;;;5.32;3.20;;;-0.70;99.90;;;;;;5050233;28;20516;-66
2024/01/21 10:48:45;;;;;;;9.82;4.80;;;-0.40;99.90;;;;;;5066724;28;20071;-66
2024/01/21 10:51:18;;;;;;;7.75;4.05;;;-0.20;99.90;;;;;;5068071;28;20125;-66
2024/01/21 10:53:53;;;;;;;3.88;2.63;;;0.00;99.90;;;;;;5067158;28;20050;-65
2024/01/21 10:56:25;;;;;;;4.82;3.58;;;0.20;99.90;;;;;;5061728;28;20051;-65
2024/01/21 10:58:53;;;;;;;5.30;3.10;;;0.30;99.90;;;;;;5070283;28;20128;-66
2024/01/21 11:01:26;;;;;;;6.65;3.35;;;0.50;99.90;;;;;;5064879;28;20045;-66
2024/01/21 11:04:07;;;;;;;5.65;2.90;;;0.60;99.90;;;;;;5059163;28;20039;-66
2024/01/21 11:06:48;;;;;;;5.07;2.92;;;0.70;99.90;;;;;;5050298;28;20045;-66
2024/01/21 11:09:21;;;;;;;3.80;2.53;;;0.80;99.90;;;;;;5059996;28;20072;-65
2024/01/21 11:11:51;;;;;;;4.47;2.63;;;0.90;99.90;;;;;;5070734;28;20045;-66
2024/01/21 11:14:35;;;;;;;3.13;2.40;;;1.00;99.90;;;;;;5054850;28;20532;-66
2024/01/21 11:17:12;;;;;;;4.03;2.55;;;1.10;99.90;;;;;;5067838;28;20045;-66
2024/01/21 11:19:48;;;;;;;4.18;3.00;;;1.20;99.90;;;;;;5047938;28;20094;-66
2024/01/21 11:22:16;;;;;;;4.85;2.95;;;1.30;99.90;;;;;;5066861;28;20041;-66
2024/01/21 11:24:45;;;;;;;4.07;2.55;;;1.30;99.90;;;;;;5064871;28;20505;-66
2024/01/21 11:27:22;;;;;;;4.07;2.50;;;1.40;99.90;;;;;;5062932;28;20056;-66
2024/01/21 11:30:00;;;;;;;3.60;2.65;;;1.40;99.90;;;;;;5085728;28;20079;-66
2024/01/21 11:32:32;;;;;;;5.68;3.20;;;1.50;99.90;;;;;;5078486;28;20513;-66
2024/01/21 11:35:14;;;;;;;4.00;2.40;;;1.60;99.90;;;;;;5052484;28;20143;-66
2024/01/21 11:37:52;;;;;;;4.35;2.83;;;1.60;99.90;;;;;;5071788;28;20041;-66
2024/01/21 11:40:23;;;;;;;4.28;3.00;;;1.60;99.90;;;;;;5038756;28;20037;-66
2024/01/21 11:42:55;;;;;;;5.55;2.40;;;1.70;99.90;;;;;;5059258;28;20044;-66
2024/01/21 11:45:27;;;;;;;4.40;2.88;;;1.80;99.90;;;;;;5054487;28;20032;-66
2024/01/21 11:47:59;;;;;;;3.88;2.55;;;1.90;99.90;;;;;;5054914;28;20049;-66
2024/01/21 11:50:32;;;;;;;3.38;2.22;;;2.00;99.90;;;;;;5065218;28;20505;-67
2024/01/21 11:53:05;;;;;;;6.45;3.30;;;2.00;99.90;;;;;;5068976;28;20075;-66
2024/01/21 11:55:32;;;;;;;8.02;3.42;;;2.10;99.90;;;;;;5061577;28;20445;-66
2024/01/21 11:57:59;;;;;;;4.53;2.88;;;2.10;99.90;;;;;;5056915;28;20040;-66
2024/01/21 12:00:31;;;;;;;3.72;2.72;;;2.20;99.90;;;;;;5074878;28;20059;-66
2024/01/21 12:03:03;;;;;;;5.60;3.35;;;2.20;99.90;;;;;;5069947;28;20072;-66
2024/01/21 12:05:37;;;;;;;4.60;2.90;;;2.30;99.90;;;;;;5076656;28;20064;-66
2024/01/21 12:08:09;;;;;;;;;;;2.30;99.90;;;;;;5055556;28;20048;-66
2024/01/21 12:10:42;;;;;;;7.82;3.15;;;2.30;99.90;;;;;;5070034;28;19936;-66
2024/01/21 12:13:08;;;;;;;5.97;3.33;;;2.30;99.90;;;;;;5063574;28;20127;-66
2024/01/21 12:15:40;;;;;;;8.13;3.92;;;2.30;99.90;;;;;;5062096;28;20044;-66
2024/01/21 12:18:07;;;;;;;4.57;2.92;;;2.40;99.90;;;;;;5077994;28;20120;-66
2024/01/21 12:20:40;;;;;;;6.25;3.45;;;2.40;99.90;;;;;;5060791;28;20146;-66
2024/01/21 12:23:22;;;;;;;10.13;3.42;;;2.40;99.90;;;;;;5068657;28;20126;-67
2024/01/21 12:25:54;;;;;;;4.05;2.30;;;2.50;99.90;;;;;;5066534;28;20091;-67
2024/01/21 12:28:27;;;;;;;4.43;2.63;;;2.50;99.90;;;;;;5057895;28;20226;-67
2024/01/21 12:30:54;;;;;;;6.90;3.65;;;2.60;99.90;;;;;;5071024;28;20032;-67
2024/01/21 12:33:26;;;;;;;5.45;3.83;;;2.70;99.90;;;;;;5057024;28;20052;-67
2024/01/21 12:35:53;;;;;;;4.75;3.63;;;2.60;99.90;;;;;;5074227;28;20036;-67
2024/01/21 12:38:20;;;;;;;5.68;3.65;;;2.60;99.90;;;;;;5062195;28;20055;-68
2024/01/21 12:40:52;;;;;;;4.30;3.25;;;2.60;99.90;;;;;;5055293;28;20054;-68
2024/01/21 12:43:24;;;;;;;4.68;2.97;;;2.60;99.90;;;;;;5065522;28;20055;-68
2024/01/21 12:45:56;;;;;;;4.00;2.40;;;2.60;99.90;;;;;;5037658;28;20529;-67
2024/01/21 12:48:29;;;;;;;3.38;2.65;;;2.60;99.90;;;;;;5038122;28;20045;-67
2024/01/21 12:51:00;;;;;;;6.22;2.83;;;2.60;99.90;;;;;;5044068;28;20048;-68
2024/01/21 12:53:33;;;;;;;6.93;3.30;;;2.60;99.90;;;;;;5067791;28;20063;-67